createdAt,value
2018-09-25T00:01:17.741Z,7.30
2018-09-25T00:03:51.183Z,7.10
2018-09-25T00:06:24.652Z,7.10
2018-09-25T00:08:58.180Z,7.00
2018-09-25T00:11:31.677Z,7.00
2018-09-25T00:14:05.741Z,6.80
2018-09-25T00:16:39.244Z,6.70
2018-09-25T00:19:12.912Z,6.90
2018-09-25T00:24:33.038Z,6.90
2018-09-25T00:27:06.708Z,6.70
2018-09-25T00:29:40.315Z,6.60
2018-09-25T00:32:13.985Z,6.40
2018-09-25T00:34:47.359Z,6.30
2018-09-25T00:37:20.846Z,6.30
2018-09-25T00:39:54.288Z,6.10
2018-09-25T00:42:27.726Z,6.10
2018-09-25T00:45:01.329Z,6.00
2018-09-25T00:47:35.020Z,5.90
2018-09-25T00:50:08.472Z,5.80
2018-09-25T00:52:42.141Z,5.70
2018-09-25T00:55:15.828Z,5.70
2018-09-25T00:57:49.380Z,5.70
2018-09-25T01:00:22.781Z,5.60
2018-09-25T01:02:56.331Z,5.60
2018-09-25T01:05:30.000Z,5.50
2018-09-25T01:08:03.371Z,5.40
2018-09-25T01:10:36.771Z,5.40
2018-09-25T01:13:10.316Z,5.40
2018-09-25T01:15:44.052Z,5.30
2018-09-25T01:18:17.639Z,5.30
2018-09-25T01:20:51.221Z,5.20
2018-09-25T01:23:24.827Z,5.20
2018-09-25T01:26:00.458Z,5.20
2018-09-25T01:28:33.791Z,5.20
2018-09-25T01:31:07.396Z,5.40
2018-09-25T01:33:40.864Z,5.30
2018-09-25T01:36:14.352Z,5.20
2018-09-25T01:38:47.988Z,5.10
2018-09-25T01:41:21.387Z,5.10
2018-09-25T01:43:55.022Z,5.00
2018-09-25T01:46:28.587Z,5.20
2018-09-25T01:49:02.312Z,5.40
2018-09-25T01:51:35.905Z,5.40
2018-09-25T01:54:09.540Z,5.10
2018-09-25T01:56:43.100Z,5.20
2018-09-25T01:59:16.769Z,5.20
2018-09-25T02:01:50.276Z,5.00
2018-09-25T02:04:23.707Z,4.80
2018-09-25T02:06:57.336Z,4.80
2018-09-25T02:09:30.760Z,4.70
2018-09-25T02:12:04.328Z,4.50
2018-09-25T02:14:37.836Z,4.60
2018-09-25T02:17:11.317Z,4.60
2018-09-25T02:19:44.828Z,4.60
2018-09-25T02:22:18.318Z,4.60
2018-09-25T02:24:51.921Z,4.40
2018-09-25T02:27:25.260Z,4.30
2018-09-25T02:29:58.570Z,4.40
2018-09-25T02:32:32.188Z,4.30
2018-09-25T02:35:05.801Z,4.30
2018-09-25T02:37:39.279Z,4.30
2018-09-25T02:40:12.905Z,4.30
2018-09-25T02:42:47.158Z,4.40
2018-09-25T02:45:20.792Z,4.20
2018-09-25T02:47:54.375Z,4.30
2018-09-25T02:50:27.971Z,4.20
2018-09-25T02:53:01.572Z,4.30
2018-09-25T02:55:35.009Z,4.30
2018-09-25T02:58:08.531Z,4.40
2018-09-25T03:00:42.031Z,4.60
2018-09-25T03:03:15.400Z,4.50
2018-09-25T03:05:48.959Z,4.40
2018-09-25T03:08:22.415Z,4.40
2018-09-25T03:10:56.016Z,4.50
2018-09-25T03:13:29.551Z,4.50
2018-09-25T03:16:03.025Z,4.40
2018-09-25T03:18:36.631Z,4.30
2018-09-25T03:21:10.056Z,4.50
2018-09-25T03:23:43.719Z,4.50
2018-09-25T03:26:17.230Z,4.20
2018-09-25T03:28:50.780Z,4.50
2018-09-25T03:31:24.263Z,4.50
2018-09-25T03:34:00.979Z,4.50
2018-09-25T03:36:34.672Z,4.50
2018-09-25T03:39:08.377Z,4.50
2018-09-25T03:41:42.080Z,4.30
2018-09-25T03:44:15.647Z,4.20
2018-09-25T03:46:49.190Z,4.10
2018-09-25T03:49:22.840Z,4.20
2018-09-25T03:51:56.235Z,4.10
2018-09-25T03:54:29.639Z,4.20
2018-09-25T03:57:03.223Z,4.20
2018-09-25T03:59:37.949Z,4.00
2018-09-25T04:02:11.280Z,4.10
2018-09-25T04:04:45.454Z,4.00
2018-09-25T04:07:19.115Z,3.80
2018-09-25T04:09:52.608Z,3.80
2018-09-25T04:12:26.364Z,3.80
2018-09-25T04:14:59.839Z,3.90
2018-09-25T04:17:33.405Z,3.80
2018-09-25T04:20:06.793Z,4.00
2018-09-25T04:22:40.396Z,4.10
2018-09-25T04:25:13.773Z,4.00
2018-09-25T04:27:47.320Z,3.90
2018-09-25T04:30:20.664Z,3.90
2018-09-25T04:32:54.188Z,3.90
2018-09-25T04:35:27.711Z,3.70
2018-09-25T04:38:01.223Z,3.60
2018-09-25T04:40:38.609Z,3.50
2018-09-25T04:43:12.335Z,3.50
2018-09-25T04:45:45.755Z,3.40
2018-09-25T04:48:19.321Z,3.40
2018-09-25T04:50:52.899Z,3.30
2018-09-25T04:53:26.313Z,3.20
2018-09-25T04:55:59.889Z,3.10
2018-09-25T04:58:33.576Z,3.10
2018-09-25T05:01:07.071Z,3.20
2018-09-25T05:03:40.740Z,3.10
2018-09-25T05:06:15.330Z,3.10
2018-09-25T05:08:49.100Z,3.20
2018-09-25T05:11:22.775Z,3.20
2018-09-25T05:13:56.422Z,3.30
2018-09-25T05:16:30.039Z,3.30
2018-09-25T05:19:03.554Z,3.40
2018-09-25T05:21:37.163Z,3.40
2018-09-25T05:24:10.761Z,3.20
2018-09-25T05:26:44.601Z,3.30
2018-09-25T05:29:18.030Z,3.40
2018-09-25T05:31:51.731Z,3.40
2018-09-25T05:34:25.228Z,3.40
2018-09-25T05:36:58.912Z,3.60
2018-09-25T05:39:32.424Z,3.60
2018-09-25T05:42:05.968Z,3.60
2018-09-25T05:44:39.536Z,3.60
2018-09-25T05:47:13.179Z,3.60
2018-09-25T05:49:46.592Z,3.50
2018-09-25T05:52:20.081Z,3.50
2018-09-25T05:54:53.561Z,3.60
2018-09-25T05:57:27.128Z,3.50
2018-09-25T06:00:00.881Z,3.50
2018-09-25T06:02:34.499Z,3.60
2018-09-25T06:05:07.995Z,3.50
2018-09-25T06:07:41.751Z,3.50
2018-09-25T06:10:15.316Z,3.60
2018-09-25T06:12:48.644Z,3.60
2018-09-25T06:15:22.237Z,3.60
2018-09-25T06:17:55.681Z,3.70
2018-09-25T06:20:29.233Z,3.80
2018-09-25T06:23:02.714Z,4.20
2018-09-25T06:25:36.200Z,4.30
2018-09-25T06:28:09.675Z,4.30
2018-09-25T06:30:43.071Z,4.10
2018-09-25T06:33:16.744Z,4.40
2018-09-25T06:35:50.291Z,4.50
2018-09-25T06:38:23.942Z,4.60
2018-09-25T06:40:57.297Z,4.60
2018-09-25T06:43:30.780Z,4.70
2018-09-25T06:46:04.385Z,4.70
2018-09-25T06:48:38.054Z,4.80
2018-09-25T06:51:11.524Z,4.80
2018-09-25T06:53:45.052Z,4.90
2018-09-25T06:56:18.648Z,5.00
2018-09-25T06:58:52.250Z,5.10
2018-09-25T07:01:25.848Z,5.20
2018-09-25T07:03:59.491Z,5.20
2018-09-25T07:06:33.044Z,5.20
2018-09-25T07:09:06.527Z,5.30
2018-09-25T07:11:39.904Z,5.30
2018-09-25T07:14:14.348Z,5.40
2018-09-25T07:16:47.824Z,5.50
2018-09-25T07:19:21.272Z,5.70
2018-09-25T07:21:54.969Z,5.80
2018-09-25T07:24:28.462Z,5.70
2018-09-25T07:27:01.943Z,5.70
2018-09-25T07:29:35.351Z,5.70
2018-09-25T07:32:08.984Z,5.70
2018-09-25T07:34:42.484Z,6.00
2018-09-25T07:37:16.051Z,6.70
2018-09-25T07:39:49.756Z,7.10
2018-09-25T07:42:23.245Z,7.10
2018-09-25T07:44:56.755Z,6.90
2018-09-25T07:47:30.243Z,6.90
2018-09-25T07:50:03.843Z,7.50
2018-09-25T07:52:38.559Z,8.20
2018-09-25T07:55:12.162Z,8.30
2018-09-25T07:57:45.704Z,8.10
2018-09-25T08:00:19.179Z,7.80
2018-09-25T08:02:52.837Z,7.60
2018-09-25T08:05:26.396Z,7.40
2018-09-25T08:07:59.906Z,7.40
2018-09-25T08:10:33.497Z,7.40
2018-09-25T08:13:06.916Z,7.60
2018-09-25T08:15:40.449Z,7.40
2018-09-25T08:18:14.012Z,7.60
2018-09-25T08:20:47.466Z,7.80
2018-09-25T08:23:20.864Z,7.80
2018-09-25T08:25:54.343Z,7.70
2018-09-25T08:28:28.606Z,7.80
2018-09-25T08:31:02.027Z,8.00
2018-09-25T08:33:35.496Z,8.10
2018-09-25T08:36:09.605Z,8.10
2018-09-25T08:38:43.352Z,8.20
2018-09-25T08:41:16.876Z,8.30
2018-09-25T08:43:50.397Z,8.30
2018-09-25T08:46:23.871Z,8.30
2018-09-25T08:48:57.507Z,8.40
2018-09-25T08:51:31.213Z,8.50
2018-09-25T08:54:04.677Z,8.60
2018-09-25T08:56:38.410Z,8.60
2018-09-25T08:59:12.023Z,8.90
2018-09-25T09:01:45.439Z,9.00
2018-09-25T09:04:19.047Z,8.90
2018-09-25T09:06:52.647Z,9.20
2018-09-25T09:09:26.167Z,9.20
2018-09-25T09:11:59.560Z,9.10
2018-09-25T09:14:33.211Z,9.00
2018-09-25T09:17:06.932Z,9.10
2018-09-25T09:19:42.522Z,9.30
2018-09-25T09:22:15.917Z,9.30
2018-09-25T09:24:49.423Z,9.40
2018-09-25T09:27:22.956Z,9.50
2018-09-25T09:29:56.527Z,9.60
2018-09-25T09:32:30.272Z,9.70
2018-09-25T09:35:03.743Z,9.90
2018-09-25T09:37:37.367Z,10.20
2018-09-25T09:40:14.567Z,10.30
2018-09-25T09:42:48.158Z,10.50
2018-09-25T09:45:21.753Z,10.30
2018-09-25T09:47:55.188Z,10.20
2018-09-25T09:50:28.803Z,10.40
2018-09-25T09:53:02.223Z,10.60
2018-09-25T09:55:35.821Z,10.50
2018-09-25T09:58:09.319Z,10.50
2018-09-25T10:00:43.020Z,10.70
2018-09-25T10:03:16.420Z,11.00
2018-09-25T10:05:49.869Z,11.10
2018-09-25T10:08:23.436Z,11.30
2018-09-25T10:10:56.984Z,11.40
2018-09-25T10:13:30.429Z,11.30
2018-09-25T10:16:04.196Z,11.50
2018-09-25T10:18:37.772Z,11.50
2018-09-25T10:21:11.512Z,11.80
2018-09-25T10:23:45.080Z,12.00
2018-09-25T10:26:18.642Z,12.10
2018-09-25T10:28:52.091Z,12.10
2018-09-25T10:31:25.783Z,12.30
2018-09-25T10:33:59.304Z,12.50
2018-09-25T10:36:32.944Z,12.70
2018-09-25T10:39:06.492Z,12.70
2018-09-25T10:41:40.062Z,13.20
2018-09-25T10:44:13.762Z,13.40
2018-09-25T10:46:47.174Z,13.70
2018-09-25T10:49:20.595Z,13.70
2018-09-25T10:51:53.968Z,13.80
2018-09-25T10:54:27.518Z,13.70
2018-09-25T10:57:01.055Z,14.00
2018-09-25T10:59:34.511Z,14.70
2018-09-25T11:02:07.984Z,14.80
2018-09-25T11:04:43.466Z,15.30
2018-09-25T11:07:16.948Z,16.00
2018-09-25T11:09:50.436Z,16.20
2018-09-25T11:12:24.085Z,16.40
2018-09-25T11:14:57.756Z,17.00
2018-09-25T11:17:31.323Z,17.60
2018-09-25T11:20:04.868Z,17.40
2018-09-25T11:22:38.264Z,18.20
2018-09-25T11:25:11.912Z,18.40
2018-09-25T11:27:45.368Z,18.00
2018-09-25T11:30:18.842Z,18.00
2018-09-25T11:32:52.528Z,18.60
2018-09-25T11:35:26.108Z,19.10
2018-09-25T11:37:59.456Z,18.30
2018-09-25T11:40:33.048Z,18.60
2018-09-25T11:43:06.553Z,19.10
2018-09-25T11:45:40.151Z,18.40
2018-09-25T11:48:13.760Z,18.40
2018-09-25T11:50:47.113Z,18.70
2018-09-25T11:53:20.763Z,19.00
2018-09-25T11:55:54.128Z,18.90
2018-09-25T11:58:27.670Z,19.30
2018-09-25T12:01:01.332Z,19.30
2018-09-25T12:03:34.807Z,19.50
2018-09-25T12:06:08.203Z,19.60
2018-09-25T12:08:41.775Z,19.30
2018-09-25T12:11:15.261Z,19.30
2018-09-25T12:13:48.887Z,18.60
2018-09-25T12:16:22.404Z,18.80
2018-09-25T12:18:55.911Z,18.30
2018-09-25T12:21:29.571Z,18.70
2018-09-25T12:24:03.060Z,18.60
2018-09-25T12:26:36.551Z,19.00
2018-09-25T12:29:10.108Z,18.90
2018-09-25T12:31:43.828Z,19.10
2018-09-25T12:34:17.212Z,18.20
2018-09-25T12:36:50.753Z,18.50
2018-09-25T12:39:24.300Z,19.00
2018-09-25T12:41:57.831Z,19.00
2018-09-25T12:44:31.366Z,18.90
2018-09-25T12:47:04.840Z,18.10
2018-09-25T12:49:38.375Z,18.30
2018-09-25T12:52:12.413Z,17.20
2018-09-25T12:54:46.024Z,16.40
2018-09-25T12:57:19.501Z,16.70
2018-09-25T12:59:53.028Z,16.60
2018-09-25T13:02:26.490Z,16.60
2018-09-25T13:04:59.999Z,16.20
2018-09-25T13:07:33.468Z,16.10
2018-09-25T13:10:07.041Z,15.70
2018-09-25T13:12:42.083Z,15.40
2018-09-25T13:15:15.532Z,15.60
2018-09-25T13:17:48.969Z,15.70
2018-09-25T13:20:22.587Z,15.50
2018-09-25T13:22:56.184Z,15.60
2018-09-25T13:25:29.775Z,15.80
2018-09-25T13:28:03.356Z,16.10
2018-09-25T13:30:36.752Z,15.80
2018-09-25T13:33:10.237Z,15.80
2018-09-25T13:35:43.719Z,16.00
2018-09-25T13:38:17.152Z,16.40
2018-09-25T13:40:50.692Z,16.40
2018-09-25T13:43:24.162Z,16.50
2018-09-25T13:45:57.639Z,16.50
2018-09-25T13:48:31.296Z,16.50
2018-09-25T13:51:04.886Z,16.50
2018-09-25T13:53:38.612Z,15.80
2018-09-25T13:56:14.940Z,15.40
2018-09-25T13:58:48.437Z,15.40
2018-09-25T14:01:21.927Z,15.10
2018-09-25T14:03:55.460Z,15.00
2018-09-25T14:06:28.944Z,15.00
2018-09-25T14:09:02.572Z,15.20
2018-09-25T14:11:36.089Z,15.40
2018-09-25T14:14:09.651Z,15.50
2018-09-25T14:16:43.192Z,15.60
2018-09-25T14:19:16.783Z,15.80
2018-09-25T14:21:50.404Z,15.90
2018-09-25T14:24:23.920Z,16.10
2018-09-25T14:26:57.324Z,15.90
2018-09-25T14:29:30.713Z,16.10
2018-09-25T14:32:04.032Z,15.70
2018-09-25T14:34:37.718Z,15.50
2018-09-25T14:37:11.371Z,15.20
2018-09-25T14:39:44.949Z,15.20
2018-09-25T14:42:18.478Z,15.10
2018-09-25T14:44:52.223Z,15.10
2018-09-25T14:47:25.803Z,15.00
2018-09-25T14:49:59.356Z,15.20
2018-09-25T14:52:32.880Z,15.10
2018-09-25T14:55:06.544Z,15.10
2018-09-25T14:57:40.053Z,15.10
2018-09-25T15:00:13.762Z,15.20
2018-09-25T15:02:47.645Z,15.20
2018-09-25T15:05:21.821Z,15.10
2018-09-25T15:07:55.436Z,15.30
2018-09-25T15:10:29.057Z,15.30
2018-09-25T15:13:02.569Z,15.20
2018-09-25T15:15:35.941Z,15.20
2018-09-25T15:18:09.632Z,15.20
2018-09-25T15:20:43.378Z,15.20
2018-09-25T15:23:16.919Z,15.30
2018-09-25T15:25:50.577Z,15.20
2018-09-25T15:28:24.148Z,15.10
2018-09-25T15:30:57.679Z,14.90
2018-09-25T15:33:31.388Z,14.70
2018-09-25T15:36:04.941Z,14.70
2018-09-25T15:38:38.559Z,14.60
2018-09-25T15:41:12.472Z,14.60
2018-09-25T15:43:45.948Z,14.60
2018-09-25T15:46:19.959Z,14.70
2018-09-25T15:48:53.551Z,14.70
2018-09-25T15:51:27.235Z,14.60
2018-09-25T15:54:00.919Z,14.50
2018-09-25T15:56:34.524Z,14.40
2018-09-25T15:59:08.456Z,14.40
2018-09-25T16:01:42.029Z,14.30
2018-09-25T16:04:16.128Z,14.30
2018-09-25T16:06:49.712Z,14.20
2018-09-25T16:09:23.341Z,14.20
2018-09-25T16:11:57.064Z,14.10
2018-09-25T16:14:30.628Z,14.20
2018-09-25T16:17:04.282Z,14.10
2018-09-25T16:19:37.937Z,14.10
2018-09-25T16:22:12.105Z,14.00
2018-09-25T16:24:45.775Z,14.00
2018-09-25T16:27:21.828Z,13.90
2018-09-25T16:29:55.441Z,13.80
2018-09-25T16:32:28.936Z,13.80
2018-09-25T16:35:02.476Z,13.70
2018-09-25T16:37:36.011Z,13.60
2018-09-25T16:40:09.996Z,13.60
2018-09-25T16:42:43.702Z,13.50
2018-09-25T16:45:17.080Z,13.40
2018-09-25T16:47:50.672Z,13.30
2018-09-25T16:50:24.280Z,13.30
2018-09-25T16:53:02.647Z,13.10
2018-09-25T16:55:36.396Z,13.10
2018-09-25T16:58:15.892Z,12.90
2018-09-25T17:00:49.647Z,12.80
2018-09-25T17:03:23.343Z,12.70
2018-09-25T17:05:56.995Z,12.60
2018-09-25T17:08:30.581Z,12.60
2018-09-25T17:11:04.391Z,12.50
2018-09-25T17:13:37.832Z,12.50
2018-09-25T17:16:11.479Z,12.30
2018-09-25T17:18:45.068Z,12.10
2018-09-25T17:21:18.781Z,12.10
2018-09-25T17:23:52.183Z,12.00
2018-09-25T17:26:25.754Z,11.80
2018-09-25T17:28:59.319Z,11.80
2018-09-25T17:31:32.864Z,11.80
2018-09-25T17:34:06.204Z,11.70
2018-09-25T17:36:39.760Z,11.60
2018-09-25T17:39:14.200Z,11.50
2018-09-25T17:41:47.951Z,11.40
2018-09-25T17:44:21.522Z,11.30
2018-09-25T17:46:55.096Z,11.20
2018-09-25T17:49:28.512Z,11.20
2018-09-25T17:52:02.120Z,11.10
2018-09-25T17:54:35.670Z,11.10
2018-09-25T17:57:09.193Z,11.00
2018-09-25T17:59:42.781Z,10.90
2018-09-25T18:02:16.316Z,10.80
2018-09-25T18:04:49.859Z,10.70
2018-09-25T18:07:23.244Z,10.70
2018-09-25T18:09:56.947Z,10.70
2018-09-25T18:12:30.413Z,10.50
2018-09-25T18:15:04.048Z,10.30
2018-09-25T18:17:37.507Z,10.30
2018-09-25T18:20:11.128Z,10.10
2018-09-25T18:22:44.685Z,10.20
2018-09-25T18:25:18.864Z,10.10
2018-09-25T18:27:52.424Z,10.00
2018-09-25T18:30:26.094Z,9.90
2018-09-25T18:33:00.264Z,9.90
2018-09-25T18:35:33.948Z,9.90
2018-09-25T18:38:07.558Z,9.80
2018-09-25T18:40:41.200Z,9.70
2018-09-25T18:43:14.733Z,9.80
2018-09-25T18:45:48.284Z,9.80
2018-09-25T18:48:21.832Z,9.60
2018-09-25T18:50:55.445Z,9.50
2018-09-25T18:53:28.876Z,9.50
2018-09-25T18:56:02.542Z,9.40
2018-09-25T18:58:38.345Z,9.50
2018-09-25T19:01:12.201Z,9.40
2018-09-25T19:03:45.729Z,9.40
2018-09-25T19:06:19.125Z,9.10
2018-09-25T19:08:52.512Z,9.20
2018-09-25T19:11:26.020Z,9.10
2018-09-25T19:13:59.432Z,8.90
2018-09-25T19:16:33.094Z,9.00
2018-09-25T19:19:06.530Z,8.90
2018-09-25T19:21:41.298Z,8.80
2018-09-25T19:24:14.974Z,8.90
2018-09-25T19:26:48.415Z,8.90
2018-09-25T19:29:21.913Z,8.80
2018-09-25T19:31:55.623Z,8.80
2018-09-25T19:34:29.266Z,8.80
2018-09-25T19:37:02.930Z,8.70
2018-09-25T19:39:36.368Z,8.70
2018-09-25T19:42:09.971Z,8.60
2018-09-25T19:44:43.608Z,8.50
2018-09-25T19:47:16.937Z,8.40
2018-09-25T19:49:50.598Z,8.20
2018-09-25T19:52:24.234Z,8.30
2018-09-25T19:54:57.592Z,8.20
2018-09-25T19:57:31.073Z,8.20
2018-09-25T20:00:04.619Z,8.10
2018-09-25T20:02:38.079Z,8.00
2018-09-25T20:05:11.964Z,7.80
2018-09-25T20:07:45.604Z,7.70
2018-09-25T20:10:19.284Z,7.50
2018-09-25T20:12:52.819Z,7.50
2018-09-25T20:15:26.388Z,7.40
2018-09-25T20:17:59.876Z,7.30
2018-09-25T20:20:33.373Z,7.30
2018-09-25T20:23:06.913Z,7.30
2018-09-25T20:25:42.657Z,7.20
2018-09-25T20:28:16.140Z,7.10
2018-09-25T20:30:49.895Z,7.00
2018-09-25T20:33:23.584Z,7.00
2018-09-25T20:35:57.182Z,7.00
2018-09-25T20:38:30.772Z,6.90
2018-09-25T20:41:04.404Z,6.90
2018-09-25T20:43:37.826Z,6.80
2018-09-25T20:46:11.536Z,6.70
2018-09-25T20:48:45.040Z,6.70
2018-09-25T20:51:18.500Z,6.90
2018-09-25T20:53:51.987Z,6.90
2018-09-25T20:56:25.531Z,6.70
2018-09-25T20:58:59.078Z,6.50
2018-09-25T21:01:32.527Z,6.50
2018-09-25T21:04:05.997Z,6.50
2018-09-25T21:06:39.580Z,6.40
2018-09-25T21:09:14.145Z,6.30
2018-09-25T21:11:47.978Z,6.30
2018-09-25T21:14:21.666Z,6.20
2018-09-25T21:16:55.275Z,6.20
2018-09-25T21:19:28.832Z,6.20
2018-09-25T21:22:02.435Z,6.10
2018-09-25T21:24:36.032Z,6.30
2018-09-25T21:27:09.531Z,6.20
2018-09-25T21:29:43.144Z,6.10
2018-09-25T21:32:16.689Z,6.20
2018-09-25T21:34:50.371Z,6.20
2018-09-25T21:37:24.039Z,6.40
2018-09-25T21:39:57.573Z,6.40
2018-09-25T21:42:31.077Z,6.40
2018-09-25T21:45:04.662Z,6.30
2018-09-25T21:47:38.354Z,6.30
2018-09-25T21:50:12.120Z,6.30
2018-09-25T21:52:45.497Z,6.20
2018-09-25T21:55:19.064Z,6.10
2018-09-25T21:57:52.575Z,6.00
2018-09-25T22:00:26.078Z,5.90
2018-09-25T22:02:59.516Z,6.00
2018-09-25T22:05:33.121Z,6.00
2018-09-25T22:08:06.667Z,6.00
2018-09-25T22:10:40.219Z,6.10
2018-09-25T22:13:13.701Z,6.10
2018-09-25T22:15:47.311Z,6.00
2018-09-25T22:18:20.876Z,5.90
2018-09-25T22:20:54.498Z,6.00
2018-09-25T22:23:27.940Z,6.00
2018-09-25T22:26:01.410Z,5.80
2018-09-25T22:28:34.764Z,5.80
2018-09-25T22:31:08.179Z,5.80
2018-09-25T22:33:41.854Z,5.80
2018-09-25T22:36:15.632Z,5.80
2018-09-25T22:38:49.119Z,5.80
2018-09-25T22:41:22.657Z,5.90
2018-09-25T22:43:56.196Z,5.90
2018-09-25T22:46:29.658Z,5.90
2018-09-25T22:49:03.091Z,5.80
2018-09-25T22:51:36.723Z,5.90
2018-09-25T22:54:10.136Z,5.90
2018-09-25T22:56:43.675Z,5.80
2018-09-25T22:59:17.223Z,5.60
2018-09-25T23:01:50.656Z,5.70
2018-09-25T23:04:24.058Z,5.60
2018-09-25T23:06:57.706Z,5.60
2018-09-25T23:09:31.319Z,5.40
2018-09-25T23:12:05.051Z,5.40
2018-09-25T23:14:38.543Z,5.20
2018-09-25T23:17:15.906Z,5.20
2018-09-25T23:19:49.619Z,5.20
2018-09-25T23:22:23.207Z,5.20
2018-09-25T23:24:56.835Z,5.30
2018-09-25T23:27:30.405Z,5.30
2018-09-25T23:30:04.382Z,5.30
2018-09-25T23:32:38.044Z,5.20
2018-09-25T23:35:11.647Z,5.30
2018-09-25T23:37:45.236Z,5.30
2018-09-25T23:42:25.987Z,5.20
2018-09-25T23:44:58.791Z,5.20
2018-09-25T23:48:30.367Z,5.10
2018-09-25T23:51:02.908Z,5.10
2018-09-25T23:54:35.227Z,4.90
2018-09-25T23:57:06.540Z,4.90
2018-09-25T23:59:39.852Z,4.80
